Atlanta, Georgia
Traffic Map
Current Weather Conditions
Atlanta, Georgia
Few Clouds
Few Clouds
75°
Feels Like: 75°
Wind Chill: 75° Ceiling: Unl
Heat Index: 75° Visibility: 10mi
Dew Point: 72° Wind: 7mph
Humidity: 90% Direction: 90° (E)
Pressure: 30.07in Gusts: 0mph
Raw Report DataKATL 270952Z 09006KT 10SM FEW050 24/22 A3007 RMK AO2 SLP172 T02390222
Traffic Incident Summary
Active as of:
Severity:
Category:
InformationThere was an issue retrieving the traffic information for this location. Please try a different location or try again shortly.
Advertisements
Track Severe Weather on mobile